Portada
METAR-TAF:

METAR-TAF

Aeropuertos :

Aeropuerto Internacional de Pekín-Capital

Pekín, China

latitud: 39-56N, longitud: 116-17E, altitud: 55 m

Observación

El informe se hizo hace 7 horas y 15 minutos, a las 05:00 UTC
Viento 2 kt con dirección variable
Temperatura 33°C
Humedad 32%
Presión 1006 hPa
Visibilidad 10 km o más
sin nubes por debajo de 1500 m y sin presencia de cumulonimbus.

METAR: ZBAA 210500Z VRB01MPS CAVOK 33/14 Q1006 NOSIG

Hora: 20:15 (12:15 UTC)

Pronóstico

El informe se hizo hace 8 horas y 45 minutos, a las 03:30 UTC
Pronóstico válido del 21 a las 06 UTC al 22 a las 06 UTC
Viento 8 kt del sur-sureste
Visibilidad 10 km o más
sin nubes por debajo de 1500 m y sin presencia de cumulonimbus.

TAF: ZBAA 210330Z 2106/2206 16004MPS CAVOK TX33/2107Z TN22/2121Z

Observaciones y pronósticos meteorológicos de más de 4000 aeropuertos (mensajes METAR y TAF).

Los puntos amarillos y rojos representan las estaciones disponibles.

Ponga el ratón en el punto deseado para ver el nombre de la estación.

Haga clic para ver las observaciones y los pronósticos meteorológicos.

Para cambiar el mapa : haga clic en los botones verdes con una cruz de color negro para hacer un zoom, en el botón verde con un guión para alejar o en las flechas verdes para mapas adyacentes.


METAR-TAF: